sensor_id;sensor_type;location;lat;lon;timestamp;temperature;humidity
70214;DHT22;60138;55.808;37.078;2023-02-28T00:02:12;-7.46;72.14
70214;DHT22;60138;55.808;37.078;2023-02-28T00:04:38;-7.44;72.37
70214;DHT22;60138;55.808;37.078;2023-02-28T00:07:04;-7.45;72.50
70214;DHT22;60138;55.808;37.078;2023-02-28T00:09:29;-7.47;72.19
70214;DHT22;60138;55.808;37.078;2023-02-28T00:11:55;-7.51;71.97
70214;DHT22;60138;55.808;37.078;2023-02-28T00:14:21;-7.55;71.89
70214;DHT22;60138;55.808;37.078;2023-02-28T00:16:46;-7.52;71.80
70214;DHT22;60138;55.808;37.078;2023-02-28T00:19:12;-7.50;71.64
70214;DHT22;60138;55.808;37.078;2023-02-28T00:21:37;-7.47;71.75
70214;DHT22;60138;55.808;37.078;2023-02-28T00:24:03;-7.50;72.21
70214;DHT22;60138;55.808;37.078;2023-02-28T00:26:29;-7.49;72.13
70214;DHT22;60138;55.808;37.078;2023-02-28T00:28:55;-7.44;72.03
70214;DHT22;60138;55.808;37.078;2023-02-28T00:31:22;-7.40;71.93
70214;DHT22;60138;55.808;37.078;2023-02-28T00:33:47;-7.36;71.63
70214;DHT22;60138;55.808;37.078;2023-02-28T00:36:14;-7.32;71.87
70214;DHT22;60138;55.808;37.078;2023-02-28T00:38:40;-7.30;71.96
70214;DHT22;60138;55.808;37.078;2023-02-28T00:41:07;-7.26;72.39
70214;DHT22;60138;55.808;37.078;2023-02-28T00:43:34;-7.26;72.19
70214;DHT22;60138;55.808;37.078;2023-02-28T00:46:00;-7.25;72.09
70214;DHT22;60138;55.808;37.078;2023-02-28T00:48:26;-7.25;71.95
70214;DHT22;60138;55.808;37.078;2023-02-28T00:50:52;-7.29;72.02
70214;DHT22;60138;55.808;37.078;2023-02-28T00:53:17;-7.30;71.07
70214;DHT22;60138;55.808;37.078;2023-02-28T00:55:43;-7.35;71.29
70214;DHT22;60138;55.808;37.078;2023-02-28T00:58:10;-7.40;71.62
70214;DHT22;60138;55.808;37.078;2023-02-28T01:00:35;-7.48;71.87
70214;DHT22;60138;55.808;37.078;2023-02-28T01:03:01;-7.49;72.06
70214;DHT22;60138;55.808;37.078;2023-02-28T01:05:27;-7.48;71.75
70214;DHT22;60138;55.808;37.078;2023-02-28T01:07:53;-7.48;71.90
70214;DHT22;60138;55.808;37.078;2023-02-28T01:10:18;-7.51;71.62
70214;DHT22;60138;55.808;37.078;2023-02-28T01:12:44;-7.55;71.42
70214;DHT22;60138;55.808;37.078;2023-02-28T01:15:11;-7.60;71.46
70214;DHT22;60138;55.808;37.078;2023-02-28T01:17:37;-7.64;71.83
70214;DHT22;60138;55.808;37.078;2023-02-28T01:20:03;-7.68;71.74
70214;DHT22;60138;55.808;37.078;2023-02-28T01:22:29;-7.75;71.81
70214;DHT22;60138;55.808;37.078;2023-02-28T01:24:55;-7.80;71.74
70214;DHT22;60138;55.808;37.078;2023-02-28T01:27:21;-7.85;71.87
70214;DHT22;60138;55.808;37.078;2023-02-28T01:29:46;-7.93;72.10
70214;DHT22;60138;55.808;37.078;2023-02-28T01:32:12;-7.98;72.11
70214;DHT22;60138;55.808;37.078;2023-02-28T01:34:38;-8.04;72.25
70214;DHT22;60138;55.808;37.078;2023-02-28T01:37:03;-8.06;72.16
70214;DHT22;60138;55.808;37.078;2023-02-28T01:39:29;-8.10;72.67
70214;DHT22;60138;55.808;37.078;2023-02-28T01:41:55;-8.14;72.33
70214;DHT22;60138;55.808;37.078;2023-02-28T01:47:35;-8.24;72.54
70214;DHT22;60138;55.808;37.078;2023-02-28T01:50:06;-8.27;72.64
70214;DHT22;60138;55.808;37.078;2023-02-28T01:52:33;-8.28;72.86
70214;DHT22;60138;55.808;37.078;2023-02-28T01:55:01;-8.30;72.42
70214;DHT22;60138;55.808;37.078;2023-02-28T01:57:36;-8.33;73.32
70214;DHT22;60138;55.808;37.078;2023-02-28T02:00:22;-8.35;73.21
70214;DHT22;60138;55.808;37.078;2023-02-28T02:02:51;-8.30;73.06
70214;DHT22;60138;55.808;37.078;2023-02-28T02:05:23;-8.30;72.93
70214;DHT22;60138;55.808;37.078;2023-02-28T02:07:55;-8.29;73.06
70214;DHT22;60138;55.808;37.078;2023-02-28T02:10:31;-8.29;72.62
70214;DHT22;60138;55.808;37.078;2023-02-28T02:13:14;-8.26;73.22
70214;DHT22;60138;55.808;37.078;2023-02-28T02:27:16;-8.27;73.62
70214;DHT22;60138;55.808;37.078;2023-02-28T02:30:50;-8.29;73.44
70214;DHT22;60138;55.808;37.078;2023-02-28T02:44:37;-8.29;73.38
70214;DHT22;60138;55.808;37.078;2023-02-28T02:47:11;-8.27;73.17
70214;DHT22;60138;55.808;37.078;2023-02-28T02:49:40;-8.28;73.16
70214;DHT22;60138;55.808;37.078;2023-02-28T02:52:10;-8.28;72.87
70214;DHT22;60138;55.808;37.078;2023-02-28T02:54:41;-8.27;73.52
70214;DHT22;60138;55.808;37.078;2023-02-28T02:57:10;-8.26;73.20
70214;DHT22;60138;55.808;37.078;2023-02-28T02:59:39;-8.27;73.77
70214;DHT22;60138;55.808;37.078;2023-02-28T03:02:08;-8.29;73.43
70214;DHT22;60138;55.808;37.078;2023-02-28T03:04:42;-8.26;73.45
70214;DHT22;60138;55.808;37.078;2023-02-28T03:07:08;-8.28;73.48
70214;DHT22;60138;55.808;37.078;2023-02-28T03:09:34;-8.27;72.99
70214;DHT22;60138;55.808;37.078;2023-02-28T03:12:00;-8.26;72.87
70214;DHT22;60138;55.808;37.078;2023-02-28T03:17:23;-8.27;72.96
70214;DHT22;60138;55.808;37.078;2023-02-28T03:32:36;-8.26;72.99
70214;DHT22;60138;55.808;37.078;2023-02-28T03:37:40;-8.30;72.83
70214;DHT22;60138;55.808;37.078;2023-02-28T03:40:17;-8.33;73.61
70214;DHT22;60138;55.808;37.078;2023-02-28T03:42:48;-8.34;73.20
70214;DHT22;60138;55.808;37.078;2023-02-28T03:45:24;-8.35;72.81
70214;DHT22;60138;55.808;37.078;2023-02-28T03:47:53;-8.34;72.64
70214;DHT22;60138;55.808;37.078;2023-02-28T03:50:23;-8.35;72.99
70214;DHT22;60138;55.808;37.078;2023-02-28T03:52:58;-8.36;72.96
70214;DHT22;60138;55.808;37.078;2023-02-28T03:55:32;-8.36;72.54
70214;DHT22;60138;55.808;37.078;2023-02-28T04:00:45;-8.39;72.80
70214;DHT22;60138;55.808;37.078;2023-02-28T04:03:11;-8.39;73.10
70214;DHT22;60138;55.808;37.078;2023-02-28T04:05:54;-8.39;72.90
70214;DHT22;60138;55.808;37.078;2023-02-28T04:08:21;-8.40;72.80
70214;DHT22;60138;55.808;37.078;2023-02-28T04:10:53;-8.42;72.61
70214;DHT22;60138;55.808;37.078;2023-02-28T04:13:20;-8.44;72.37
70214;DHT22;60138;55.808;37.078;2023-02-28T04:15:46;-8.44;72.43
70214;DHT22;60138;55.808;37.078;2023-02-28T04:18:11;-8.44;72.81
70214;DHT22;60138;55.808;37.078;2023-02-28T04:20:37;-8.46;73.06
70214;DHT22;60138;55.808;37.078;2023-02-28T04:23:03;-8.41;71.94
70214;DHT22;60138;55.808;37.078;2023-02-28T04:25:28;-8.40;72.09
70214;DHT22;60138;55.808;37.078;2023-02-28T04:27:54;-8.41;72.41
70214;DHT22;60138;55.808;37.078;2023-02-28T04:30:20;-8.44;72.38
70214;DHT22;60138;55.808;37.078;2023-02-28T04:32:46;-8.43;72.41
70214;DHT22;60138;55.808;37.078;2023-02-28T04:35:12;-8.43;72.36
70214;DHT22;60138;55.808;37.078;2023-02-28T04:37:37;-8.44;72.73
70214;DHT22;60138;55.808;37.078;2023-02-28T04:40:03;-8.39;72.03
70214;DHT22;60138;55.808;37.078;2023-02-28T04:42:29;-8.38;72.30
70214;DHT22;60138;55.808;37.078;2023-02-28T04:44:55;-8.39;72.45
70214;DHT22;60138;55.808;37.078;2023-02-28T04:47:21;-8.37;72.38
70214;DHT22;60138;55.808;37.078;2023-02-28T04:49:46;-8.31;72.16
70214;DHT22;60138;55.808;37.078;2023-02-28T04:52:12;-8.28;72.09
70214;DHT22;60138;55.808;37.078;2023-02-28T04:54:37;-8.28;72.13
70214;DHT22;60138;55.808;37.078;2023-02-28T04:57:03;-8.21;71.78
70214;DHT22;60138;55.808;37.078;2023-02-28T04:59:29;-8.21;71.87
70214;DHT22;60138;55.808;37.078;2023-02-28T05:01:54;-8.21;72.09
70214;DHT22;60138;55.808;37.078;2023-02-28T05:04:20;-8.21;71.90
70214;DHT22;60138;55.808;37.078;2023-02-28T05:06:46;-8.18;71.45
70214;DHT22;60138;55.808;37.078;2023-02-28T05:09:11;-8.16;71.54
70214;DHT22;60138;55.808;37.078;2023-02-28T05:11:37;-8.15;71.90
70214;DHT22;60138;55.808;37.078;2023-02-28T05:14:05;-8.12;71.67
70214;DHT22;60138;55.808;37.078;2023-02-28T05:16:32;-8.08;71.49
70214;DHT22;60138;55.808;37.078;2023-02-28T05:18:57;-8.06;71.55
70214;DHT22;60138;55.808;37.078;2023-02-28T05:23:49;-7.99;71.26
70214;DHT22;60138;55.808;37.078;2023-02-28T05:26:14;-7.95;71.16
70214;DHT22;60138;55.808;37.078;2023-02-28T05:28:40;-7.93;71.13
70214;DHT22;60138;55.808;37.078;2023-02-28T05:31:05;-7.90;71.16
70214;DHT22;60138;55.808;37.078;2023-02-28T05:33:31;-7.85;71.05
70214;DHT22;60138;55.808;37.078;2023-02-28T05:35:57;-7.83;70.90
70214;DHT22;60138;55.808;37.078;2023-02-28T05:38:22;-7.79;70.91
70214;DHT22;60138;55.808;37.078;2023-02-28T05:40:48;-7.76;70.89
70214;DHT22;60138;55.808;37.078;2023-02-28T05:43:14;-7.69;70.86
70214;DHT22;60138;55.808;37.078;2023-02-28T05:45:39;-7.66;70.79
70214;DHT22;60138;55.808;37.078;2023-02-28T05:48:05;-7.61;70.69
70214;DHT22;60138;55.808;37.078;2023-02-28T05:50:31;-7.54;70.62
70214;DHT22;60138;55.808;37.078;2023-02-28T05:52:56;-7.51;70.58
70214;DHT22;60138;55.808;37.078;2023-02-28T05:55:22;-7.38;70.64
70214;DHT22;60138;55.808;37.078;2023-02-28T05:57:48;-7.21;70.42
70214;DHT22;60138;55.808;37.078;2023-02-28T06:00:14;-7.11;70.42
70214;DHT22;60138;55.808;37.078;2023-02-28T06:02:40;-7.01;69.59
70214;DHT22;60138;55.808;37.078;2023-02-28T06:05:13;-6.85;70.45
70214;DHT22;60138;55.808;37.078;2023-02-28T06:07:39;-6.73;70.26
70214;DHT22;60138;55.808;37.078;2023-02-28T06:10:05;-6.61;68.84
70214;DHT22;60138;55.808;37.078;2023-02-28T06:12:30;-6.53;68.74
70214;DHT22;60138;55.808;37.078;2023-02-28T06:14:57;-6.46;69.33
70214;DHT22;60138;55.808;37.078;2023-02-28T06:17:23;-6.35;69.26
70214;DHT22;60138;55.808;37.078;2023-02-28T06:19:48;-6.26;68.95
70214;DHT22;60138;55.808;37.078;2023-02-28T06:22:14;-6.21;66.52
70214;DHT22;60138;55.808;37.078;2023-02-28T06:24:40;-6.08;68.30
70214;DHT22;60138;55.808;37.078;2023-02-28T06:27:06;-5.97;68.55
70214;DHT22;60138;55.808;37.078;2023-02-28T06:29:33;-5.94;67.29
70214;DHT22;60138;55.808;37.078;2023-02-28T06:31:59;-5.90;68.93
70214;DHT22;60138;55.808;37.078;2023-02-28T06:34:24;-5.82;68.92
70214;DHT22;60138;55.808;37.078;2023-02-28T06:36:50;-5.69;68.03
70214;DHT22;60138;55.808;37.078;2023-02-28T06:39:17;-5.62;69.07
70214;DHT22;60138;55.808;37.078;2023-02-28T06:41:43;-5.54;67.58
70214;DHT22;60138;55.808;37.078;2023-02-28T06:44:16;-5.40;68.04
70214;DHT22;60138;55.808;37.078;2023-02-28T06:46:44;-5.25;67.41
70214;DHT22;60138;55.808;37.078;2023-02-28T06:49:10;-5.12;67.34
70214;DHT22;60138;55.808;37.078;2023-02-28T06:51:38;-4.98;67.75
70214;DHT22;60138;55.808;37.078;2023-02-28T06:54:04;-4.87;67.90
70214;DHT22;60138;55.808;37.078;2023-02-28T06:56:29;-4.73;67.07
70214;DHT22;60138;55.808;37.078;2023-02-28T06:58:55;-4.60;66.98
70214;DHT22;60138;55.808;37.078;2023-02-28T07:01:21;-4.56;67.53
70214;DHT22;60138;55.808;37.078;2023-02-28T07:03:47;-4.45;67.12
70214;DHT22;60138;55.808;37.078;2023-02-28T07:06:13;-4.41;65.78
70214;DHT22;60138;55.808;37.078;2023-02-28T07:08:38;-4.35;66.43
70214;DHT22;60138;55.808;37.078;2023-02-28T07:11:04;-4.28;67.20
70214;DHT22;60138;55.808;37.078;2023-02-28T07:13:30;-4.22;65.65
70214;DHT22;60138;55.808;37.078;2023-02-28T07:16:01;-4.14;66.07
70214;DHT22;60138;55.808;37.078;2023-02-28T07:18:27;-4.06;67.01
70214;DHT22;60138;55.808;37.078;2023-02-28T07:20:53;-3.99;65.72
70214;DHT22;60138;55.808;37.078;2023-02-28T07:23:19;-3.91;67.22
70214;DHT22;60138;55.808;37.078;2023-02-28T07:25:45;-3.87;66.07
70214;DHT22;60138;55.808;37.078;2023-02-28T07:28:12;-3.81;66.98
70214;DHT22;60138;55.808;37.078;2023-02-28T07:30:37;-3.77;65.71
70214;DHT22;60138;55.808;37.078;2023-02-28T07:33:03;-3.66;67.72
70214;DHT22;60138;55.808;37.078;2023-02-28T07:35:29;-3.57;67.03
70214;DHT22;60138;55.808;37.078;2023-02-28T07:37:56;-3.47;66.76
70214;DHT22;60138;55.808;37.078;2023-02-28T07:40:22;-3.39;67.65
70214;DHT22;60138;55.808;37.078;2023-02-28T07:42:48;-3.32;66.94
70214;DHT22;60138;55.808;37.078;2023-02-28T07:45:16;-3.22;67.68
70214;DHT22;60138;55.808;37.078;2023-02-28T07:47:42;-3.22;66.76
70214;DHT22;60138;55.808;37.078;2023-02-28T07:50:10;-3.22;66.85
70214;DHT22;60138;55.808;37.078;2023-02-28T07:52:37;-3.13;66.89
70214;DHT22;60138;55.808;37.078;2023-02-28T07:55:04;-3.05;66.40
70214;DHT22;60138;55.808;37.078;2023-02-28T07:57:30;-2.94;64.68
70214;DHT22;60138;55.808;37.078;2023-02-28T07:59:55;-2.86;65.91
70214;DHT22;60138;55.808;37.078;2023-02-28T08:02:21;-2.81;64.92
70214;DHT22;60138;55.808;37.078;2023-02-28T08:04:47;-2.75;66.69
70214;DHT22;60138;55.808;37.078;2023-02-28T08:07:13;-2.71;66.96
70214;DHT22;60138;55.808;37.078;2023-02-28T08:09:42;-2.66;66.85
70214;DHT22;60138;55.808;37.078;2023-02-28T08:12:09;-2.61;67.09
70214;DHT22;60138;55.808;37.078;2023-02-28T08:14:35;-2.56;66.56
70214;DHT22;60138;55.808;37.078;2023-02-28T08:17:01;-2.48;65.38
70214;DHT22;60138;55.808;37.078;2023-02-28T08:19:27;-2.36;66.70
70214;DHT22;60138;55.808;37.078;2023-02-28T08:21:53;-2.23;65.70
70214;DHT22;60138;55.808;37.078;2023-02-28T08:24:18;-2.12;66.42
70214;DHT22;60138;55.808;37.078;2023-02-28T08:26:44;-2.06;66.45
70214;DHT22;60138;55.808;37.078;2023-02-28T08:29:10;-2.12;64.11
70214;DHT22;60138;55.808;37.078;2023-02-28T08:31:35;-2.29;63.33
70214;DHT22;60138;55.808;37.078;2023-02-28T08:34:09;-2.44;63.48
70214;DHT22;60138;55.808;37.078;2023-02-28T08:36:35;-2.63;64.46
70214;DHT22;60138;55.808;37.078;2023-02-28T08:39:01;-2.69;66.23
70214;DHT22;60138;55.808;37.078;2023-02-28T08:41:26;-2.73;67.31
70214;DHT22;60138;55.808;37.078;2023-02-28T08:43:52;-2.71;66.49
70214;DHT22;60138;55.808;37.078;2023-02-28T08:46:18;-2.76;65.48
70214;DHT22;60138;55.808;37.078;2023-02-28T08:48:44;-2.76;65.61
70214;DHT22;60138;55.808;37.078;2023-02-28T08:51:12;-2.72;66.08
70214;DHT22;60138;55.808;37.078;2023-02-28T08:53:39;-2.65;66.70
70214;DHT22;60138;55.808;37.078;2023-02-28T08:56:08;-2.64;65.88
70214;DHT22;60138;55.808;37.078;2023-02-28T08:58:34;-2.60;66.58
70214;DHT22;60138;55.808;37.078;2023-02-28T09:01:06;-2.58;66.18
70214;DHT22;60138;55.808;37.078;2023-02-28T09:03:32;-2.53;65.82
70214;DHT22;60138;55.808;37.078;2023-02-28T09:06:01;-2.49;65.69
70214;DHT22;60138;55.808;37.078;2023-02-28T09:08:28;-2.45;65.11
70214;DHT22;60138;55.808;37.078;2023-02-28T09:10:54;-2.32;66.08
70214;DHT22;60138;55.808;37.078;2023-02-28T09:13:20;-2.19;65.83
70214;DHT22;60138;55.808;37.078;2023-02-28T09:15:46;-2.12;65.91
70214;DHT22;60138;55.808;37.078;2023-02-28T09:18:12;-2.04;66.25
70214;DHT22;60138;55.808;37.078;2023-02-28T09:20:39;-2.06;66.12
70214;DHT22;60138;55.808;37.078;2023-02-28T09:23:06;-2.08;66.40
70214;DHT22;60138;55.808;37.078;2023-02-28T09:25:31;-2.13;65.66
70214;DHT22;60138;55.808;37.078;2023-02-28T09:27:57;-2.21;65.19
70214;DHT22;60138;55.808;37.078;2023-02-28T09:30:22;-2.23;65.96
70214;DHT22;60138;55.808;37.078;2023-02-28T09:32:48;-2.21;65.96
70214;DHT22;60138;55.808;37.078;2023-02-28T09:35:14;-2.24;66.20
70214;DHT22;60138;55.808;37.078;2023-02-28T09:37:39;-2.33;65.31
70214;DHT22;60138;55.808;37.078;2023-02-28T09:40:06;-2.29;66.23
70214;DHT22;60138;55.808;37.078;2023-02-28T09:42:33;-2.21;66.43
70214;DHT22;60138;55.808;37.078;2023-02-28T09:45:02;-2.30;65.22
70214;DHT22;60138;55.808;37.078;2023-02-28T09:47:38;-2.31;66.36
70214;DHT22;60138;55.808;37.078;2023-02-28T09:50:30;-2.32;66.36
70214;DHT22;60138;55.808;37.078;2023-02-28T09:52:56;-2.29;66.54
70214;DHT22;60138;55.808;37.078;2023-02-28T09:55:43;-2.16;66.62
70214;DHT22;60138;55.808;37.078;2023-02-28T09:58:37;-2.05;65.90
70214;DHT22;60138;55.808;37.078;2023-02-28T10:03:59;-2.04;66.31
70214;DHT22;60138;55.808;37.078;2023-02-28T10:06:36;-2.05;66.46
70214;DHT22;60138;55.808;37.078;2023-02-28T10:09:31;-2.06;70.13
70214;DHT22;60138;55.808;37.078;2023-02-28T10:12:03;-2.07;68.98
70214;DHT22;60138;55.808;37.078;2023-02-28T10:14:33;-2.09;67.70
70214;DHT22;60138;55.808;37.078;2023-02-28T10:17:15;-2.03;67.48
70214;DHT22;60138;55.808;37.078;2023-02-28T10:22:23;-1.97;66.93
70214;DHT22;60138;55.808;37.078;2023-02-28T10:24:52;-1.89;67.07
70214;DHT22;60138;55.808;37.078;2023-02-28T10:27:28;-1.85;66.52
70214;DHT22;60138;55.808;37.078;2023-02-28T10:30:01;-1.88;66.56
70214;DHT22;60138;55.808;37.078;2023-02-28T10:32:35;-1.84;66.55
70214;DHT22;60138;55.808;37.078;2023-02-28T10:35:23;-1.85;66.17
70214;DHT22;60138;55.808;37.078;2023-02-28T10:38:00;-1.86;66.43
70214;DHT22;60138;55.808;37.078;2023-02-28T10:40:33;-1.85;66.85
70214;DHT22;60138;55.808;37.078;2023-02-28T10:43:00;-1.82;66.62
70214;DHT22;60138;55.808;37.078;2023-02-28T10:45:28;-1.80;66.75
70214;DHT22;60138;55.808;37.078;2023-02-28T10:47:57;-1.79;66.94
70214;DHT22;60138;55.808;37.078;2023-02-28T10:50:50;-1.83;66.96
70214;DHT22;60138;55.808;37.078;2023-02-28T10:56:00;-1.74;67.17
70214;DHT22;60138;55.808;37.078;2023-02-28T11:00:59;-1.68;67.11
70214;DHT22;60138;55.808;37.078;2023-02-28T11:03:30;-1.69;66.97
70214;DHT22;60138;55.808;37.078;2023-02-28T11:05:57;-1.69;67.16
70214;DHT22;60138;55.808;37.078;2023-02-28T11:08:23;-1.65;67.29
70214;DHT22;60138;55.808;37.078;2023-02-28T11:10:55;-1.68;67.32
70214;DHT22;60138;55.808;37.078;2023-02-28T11:13:27;-1.62;67.19
70214;DHT22;60138;55.808;37.078;2023-02-28T11:15:55;-1.59;67.23
70214;DHT22;60138;55.808;37.078;2023-02-28T11:18:44;-1.58;67.39
70214;DHT22;60138;55.808;37.078;2023-02-28T11:21:21;-1.46;67.49
70214;DHT22;60138;55.808;37.078;2023-02-28T11:23:49;-1.34;67.36
70214;DHT22;60138;55.808;37.078;2023-02-28T11:26:16;-1.33;67.41
70214;DHT22;60138;55.808;37.078;2023-02-28T11:29:33;-1.38;67.17
70214;DHT22;60138;55.808;37.078;2023-02-28T11:34:34;-1.48;67.50
70214;DHT22;60138;55.808;37.078;2023-02-28T11:37:01;-1.50;67.72
70214;DHT22;60138;55.808;37.078;2023-02-28T11:39:27;-1.48;67.75
70214;DHT22;60138;55.808;37.078;2023-02-28T11:48:08;-1.83;69.42
70214;DHT22;60138;55.808;37.078;2023-02-28T11:55:59;-1.83;70.16
70214;DHT22;60138;55.808;37.078;2023-02-28T12:01:42;-1.83;70.43
70214;DHT22;60138;55.808;37.078;2023-02-28T12:07:18;-1.83;70.23
70214;DHT22;60138;55.808;37.078;2023-02-28T12:21:10;-1.87;72.84
70214;DHT22;60138;55.808;37.078;2023-02-28T12:26:34;-1.83;70.68
70214;DHT22;60138;55.808;37.078;2023-02-28T12:29:22;-1.84;72.56
70214;DHT22;60138;55.808;37.078;2023-02-28T12:35:25;-1.82;70.16
70214;DHT22;60138;55.808;37.078;2023-02-28T12:37:29;-1.82;70.43
70214;DHT22;60138;55.808;37.078;2023-02-28T12:40:02;-1.85;72.28
70214;DHT22;60138;55.808;37.078;2023-02-28T12:42:32;-1.83;70.83
70214;DHT22;60138;55.808;37.078;2023-02-28T12:45:02;-1.82;71.27
70214;DHT22;60138;55.808;37.078;2023-02-28T12:47:30;-1.83;71.92
70214;DHT22;60138;55.808;37.078;2023-02-28T12:50:04;-1.80;70.39
70214;DHT22;60138;55.808;37.078;2023-02-28T12:53:04;-1.76;71.64
70214;DHT22;60138;55.808;37.078;2023-02-28T13:01:02;-1.64;72.16
70214;DHT22;60138;55.808;37.078;2023-02-28T13:09:39;-1.54;71.37
70214;DHT22;60138;55.808;37.078;2023-02-28T13:12:15;-1.48;71.37
70214;DHT22;60138;55.808;37.078;2023-02-28T13:14:41;-1.48;71.71
70214;DHT22;60138;55.808;37.078;2023-02-28T13:22:42;-1.42;71.83
70214;DHT22;60138;55.808;37.078;2023-02-28T13:28:01;-1.36;70.84
70214;DHT22;60138;55.808;37.078;2023-02-28T13:38:38;-1.32;71.79
70214;DHT22;60138;55.808;37.078;2023-02-28T13:44:07;-1.29;70.81
70214;DHT22;60138;55.808;37.078;2023-02-28T13:49:26;-1.26;70.86
70214;DHT22;60138;55.808;37.078;2023-02-28T14:06:28;-1.31;72.61
70214;DHT22;60138;55.808;37.078;2023-02-28T14:11:36;-1.38;73.15
70214;DHT22;60138;55.808;37.078;2023-02-28T14:14:04;-1.42;74.27
70214;DHT22;60138;55.808;37.078;2023-02-28T14:16:44;-1.45;73.74
70214;DHT22;60138;55.808;37.078;2023-02-28T14:19:24;-1.47;74.73
70214;DHT22;60138;55.808;37.078;2023-02-28T14:32:59;-1.49;75.83
70214;DHT22;60138;55.808;37.078;2023-02-28T14:37:55;-1.44;73.50
70214;DHT22;60138;55.808;37.078;2023-02-28T14:40:29;-1.42;75.48
70214;DHT22;60138;55.808;37.078;2023-02-28T14:43:04;-1.42;76.58
70214;DHT22;60138;55.808;37.078;2023-02-28T14:45:34;-1.40;75.18
70214;DHT22;60138;55.808;37.078;2023-02-28T14:48:01;-1.40;75.24
70214;DHT22;60138;55.808;37.078;2023-02-28T14:50:34;-1.35;74.76
70214;DHT22;60138;55.808;37.078;2023-02-28T14:53:00;-1.38;77.56
70214;DHT22;60138;55.808;37.078;2023-02-28T14:55:31;-1.36;76.24
70214;DHT22;60138;55.808;37.078;2023-02-28T14:58:00;-1.38;79.66
70214;DHT22;60138;55.808;37.078;2023-02-28T15:00:28;-1.38;78.81
70214;DHT22;60138;55.808;37.078;2023-02-28T15:02:56;-1.38;78.31
70214;DHT22;60138;55.808;37.078;2023-02-28T15:07:59;-1.36;78.18
70214;DHT22;60138;55.808;37.078;2023-02-28T15:10:27;-1.34;76.96
70214;DHT22;60138;55.808;37.078;2023-02-28T15:12:57;-1.33;76.75
70214;DHT22;60138;55.808;37.078;2023-02-28T15:15:50;-1.31;75.95
70214;DHT22;60138;55.808;37.078;2023-02-28T15:21:13;-1.27;76.08
70214;DHT22;60138;55.808;37.078;2023-02-28T15:23:44;-1.27;75.89
70214;DHT22;60138;55.808;37.078;2023-02-28T15:26:15;-1.25;77.08
70214;DHT22;60138;55.808;37.078;2023-02-28T15:28:41;-1.20;75.54
70214;DHT22;60138;55.808;37.078;2023-02-28T15:31:19;-1.19;76.63
70214;DHT22;60138;55.808;37.078;2023-02-28T15:33:54;-1.20;78.28
70214;DHT22;60138;55.808;37.078;2023-02-28T15:36:25;-1.17;77.40
70214;DHT22;60138;55.808;37.078;2023-02-28T15:38:51;-1.14;77.30
70214;DHT22;60138;55.808;37.078;2023-02-28T15:41:35;-1.09;75.63
70214;DHT22;60138;55.808;37.078;2023-02-28T15:44:28;-1.06;75.70
70214;DHT22;60138;55.808;37.078;2023-02-28T15:47:01;-1.02;75.74
70214;DHT22;60138;55.808;37.078;2023-02-28T15:49:30;-1.04;78.73
70214;DHT22;60138;55.808;37.078;2023-02-28T15:51:59;-1.00;76.15
70214;DHT22;60138;55.808;37.078;2023-02-28T15:54:34;-0.97;76.60
70214;DHT22;60138;55.808;37.078;2023-02-28T15:57:22;-0.96;77.31
70214;DHT22;60138;55.808;37.078;2023-02-28T16:00:00;-0.96;78.24
70214;DHT22;60138;55.808;37.078;2023-02-28T16:02:37;-0.95;77.35
70214;DHT22;60138;55.808;37.078;2023-02-28T16:07:38;-0.94;77.48
70214;DHT22;60138;55.808;37.078;2023-02-28T16:10:05;-0.91;78.06
70214;DHT22;60138;55.808;37.078;2023-02-28T16:12:34;-0.90;77.04
70214;DHT22;60138;55.808;37.078;2023-02-28T16:15:02;-0.90;78.43
70214;DHT22;60138;55.808;37.078;2023-02-28T16:17:33;-0.89;76.46
70214;DHT22;60138;55.808;37.078;2023-02-28T16:19:59;-0.87;77.18
70214;DHT22;60138;55.808;37.078;2023-02-28T16:22:25;-0.88;76.87
70214;DHT22;60138;55.808;37.078;2023-02-28T16:24:50;-0.86;76.52
70214;DHT22;60138;55.808;37.078;2023-02-28T16:27:20;-0.84;77.70
70214;DHT22;60138;55.808;37.078;2023-02-28T16:29:47;-0.84;76.65
70214;DHT22;60138;55.808;37.078;2023-02-28T16:32:15;-0.82;77.02
70214;DHT22;60138;55.808;37.078;2023-02-28T16:34:43;-0.79;76.19
70214;DHT22;60138;55.808;37.078;2023-02-28T16:37:18;-0.76;76.16
70214;DHT22;60138;55.808;37.078;2023-02-28T16:39:44;-0.74;76.25
70214;DHT22;60138;55.808;37.078;2023-02-28T16:42:20;-0.73;76.40
70214;DHT22;60138;55.808;37.078;2023-02-28T16:44:48;-0.74;77.72
70214;DHT22;60138;55.808;37.078;2023-02-28T16:47:13;-0.73;77.63
70214;DHT22;60138;55.808;37.078;2023-02-28T16:49:39;-0.74;77.69
70214;DHT22;60138;55.808;37.078;2023-02-28T16:52:05;-0.71;76.86
70214;DHT22;60138;55.808;37.078;2023-02-28T16:54:30;-0.71;77.79
70214;DHT22;60138;55.808;37.078;2023-02-28T16:56:56;-0.67;76.50
70214;DHT22;60138;55.808;37.078;2023-02-28T16:59:23;-0.69;77.49
70214;DHT22;60138;55.808;37.078;2023-02-28T17:01:50;-0.66;77.53
70214;DHT22;60138;55.808;37.078;2023-02-28T17:04:16;-0.65;75.66
70214;DHT22;60138;55.808;37.078;2023-02-28T17:06:41;-0.70;79.89
70214;DHT22;60138;55.808;37.078;2023-02-28T17:09:21;-0.76;83.07
70214;DHT22;60138;55.808;37.078;2023-02-28T17:11:47;-0.75;81.60
70214;DHT22;60138;55.808;37.078;2023-02-28T17:14:14;-0.80;82.60
70214;DHT22;60138;55.808;37.078;2023-02-28T17:16:40;-0.76;82.42
70214;DHT22;60138;55.808;37.078;2023-02-28T17:19:09;-0.77;81.44
70214;DHT22;60138;55.808;37.078;2023-02-28T17:21:36;-0.85;82.66
70214;DHT22;60138;55.808;37.078;2023-02-28T17:24:02;-0.87;82.10
70214;DHT22;60138;55.808;37.078;2023-02-28T17:26:28;-0.89;81.10
70214;DHT22;60138;55.808;37.078;2023-02-28T17:28:55;-0.93;80.82
70214;DHT22;60138;55.808;37.078;2023-02-28T17:31:22;-0.97;80.78
70214;DHT22;60138;55.808;37.078;2023-02-28T17:33:48;-1.06;81.55
70214;DHT22;60138;55.808;37.078;2023-02-28T17:36:22;-1.09;80.81
70214;DHT22;60138;55.808;37.078;2023-02-28T17:38:49;-1.12;80.98
70214;DHT22;60138;55.808;37.078;2023-02-28T17:41:14;-1.15;81.11
70214;DHT22;60138;55.808;37.078;2023-02-28T17:43:40;-1.11;79.01
70214;DHT22;60138;55.808;37.078;2023-02-28T17:46:27;-1.13;78.47
70214;DHT22;60138;55.808;37.078;2023-02-28T17:48:53;-1.18;79.70
70214;DHT22;60138;55.808;37.078;2023-02-28T17:51:20;-1.23;79.40
70214;DHT22;60138;55.808;37.078;2023-02-28T17:53:46;-1.20;79.03
70214;DHT22;60138;55.808;37.078;2023-02-28T17:56:23;-1.16;78.74
70214;DHT22;60138;55.808;37.078;2023-02-28T17:58:51;-1.11;77.79
70214;DHT22;60138;55.808;37.078;2023-02-28T18:01:18;-1.09;78.04
70214;DHT22;60138;55.808;37.078;2023-02-28T18:03:43;-1.03;78.20
70214;DHT22;60138;55.808;37.078;2023-02-28T18:06:39;-1.00;77.59
70214;DHT22;60138;55.808;37.078;2023-02-28T18:09:05;-0.98;77.11
70214;DHT22;60138;55.808;37.078;2023-02-28T18:11:31;-1.05;75.84
70214;DHT22;60138;55.808;37.078;2023-02-28T18:13:57;-1.06;75.34
70214;DHT22;60138;55.808;37.078;2023-02-28T18:16:22;-1.17;71.35
70214;DHT22;60138;55.808;37.078;2023-02-28T18:18:48;-1.25;70.89